createdAt,value
2022-08-06T00:06:39.218Z,5.93
2022-08-06T00:11:47.704Z,6.40
2022-08-06T00:23:17.031Z,6.15
2022-08-06T00:33:50.168Z,6.88
2022-08-06T01:03:27.455Z,7.07
2022-08-06T01:08:21.624Z,7.43
2022-08-06T01:13:25.496Z,6.00
2022-08-06T01:18:25.869Z,6.72
2022-08-06T01:23:49.513Z,6.70
2022-08-06T01:28:51.671Z,7.10
2022-08-06T01:33:54.641Z,6.40
2022-08-06T01:38:57.581Z,6.60
2022-08-06T01:44:06.863Z,6.40
2022-08-06T01:49:09.195Z,8.73
2022-08-06T01:54:19.237Z,8.68
2022-08-06T01:59:19.115Z,8.63
2022-08-06T02:04:14.555Z,8.70
2022-08-06T02:09:28.027Z,8.05
2022-08-06T02:14:34.786Z,7.72
2022-08-06T02:19:48.327Z,8.23
2022-08-06T02:24:48.943Z,7.88
2022-08-06T02:30:05.486Z,8.45
2022-08-06T02:35:01.802Z,8.45
2022-08-06T02:40:04.473Z,7.90
2022-08-06T02:45:05.351Z,8.57
2022-08-06T02:50:03.484Z,7.47
2022-08-06T02:55:07.485Z,7.50
2022-08-06T03:00:07.637Z,8.23
2022-08-06T03:05:05.560Z,10.05
2022-08-06T03:15:15.315Z,7.95
2022-08-06T03:20:25.479Z,8.07
2022-08-06T03:25:24.041Z,7.70
2022-08-06T03:30:32.130Z,7.10
2022-08-06T03:35:50.341Z,7.47
2022-08-06T03:40:47.074Z,7.90
2022-08-06T03:45:55.923Z,7.07
2022-08-06T03:50:52.384Z,7.20
2022-08-06T03:55:52.733Z,8.13
2022-08-06T04:00:56.403Z,7.97
2022-08-06T04:10:56.520Z,6.72
2022-08-06T04:15:55.657Z,7.63
2022-08-06T04:23:04.975Z,9.73
2022-08-06T04:27:26.696Z,9.35
2022-08-06T04:32:29.554Z,9.38
2022-08-06T04:37:26.498Z,8.27
2022-08-06T04:42:40.876Z,8.30
2022-08-06T04:48:07.355Z,7.68
2022-08-06T04:54:01.489Z,8.20
2022-08-06T05:06:04.703Z,8.50
2022-08-06T05:11:05.445Z,7.95
2022-08-06T05:16:06.261Z,8.57
2022-08-06T05:21:08.158Z,9.40
2022-08-06T05:26:02.338Z,8.65
2022-08-06T05:31:25.752Z,8.80
2022-08-06T05:36:37.033Z,9.00
2022-08-06T05:41:46.013Z,9.73
2022-08-06T05:47:00.421Z,10.38
2022-08-06T05:52:03.799Z,11.82
2022-08-06T05:57:17.896Z,12.15
2022-08-06T06:03:48.979Z,12.57
2022-08-06T06:09:09.363Z,13.05
2022-08-06T06:14:32.305Z,15.35
2022-08-06T06:19:39.066Z,15.93
2022-08-06T06:24:45.372Z,13.68
2022-08-06T06:30:05.974Z,9.30
2022-08-06T06:35:32.540Z,8.20
2022-08-06T06:40:52.879Z,7.75
2022-08-06T06:46:07.465Z,7.78
2022-08-06T06:51:40.957Z,7.68
2022-08-06T06:56:51.127Z,8.82
2022-08-06T07:01:54.121Z,8.68
2022-08-06T07:06:57.473Z,8.38
2022-08-06T07:12:03.222Z,8.07
2022-08-06T07:17:00.040Z,7.68
2022-08-06T07:21:54.315Z,6.82
2022-08-06T07:26:52.417Z,6.95
2022-08-06T07:31:56.956Z,7.50
2022-08-06T07:37:01.136Z,7.00
2022-08-06T07:42:11.576Z,6.88
2022-08-06T07:47:23.278Z,6.53
2022-08-06T08:00:18.614Z,6.85
2022-08-06T08:05:39.427Z,6.93
2022-08-06T08:10:36.674Z,5.18
2022-08-06T08:18:26.397Z,5.68
2022-08-06T08:21:42.195Z,5.68
2022-08-06T08:27:22.105Z,5.18
2022-08-06T08:32:15.095Z,5.38
2022-08-06T08:37:18.034Z,5.90
2022-08-06T08:42:18.052Z,5.70
2022-08-06T08:54:00.917Z,5.03
2022-08-06T08:59:57.256Z,5.07
2022-08-06T09:05:15.161Z,5.20
2022-08-06T09:10:52.223Z,5.30
2022-08-06T09:16:50.258Z,5.75
2022-08-06T09:21:50.960Z,4.97
2022-08-06T09:27:45.102Z,4.93
2022-08-06T09:33:03.889Z,5.88
2022-08-06T09:38:10.874Z,6.18
2022-08-06T09:49:45.939Z,5.30
2022-08-06T09:54:24.493Z,5.80
2022-08-06T09:59:18.951Z,5.85
2022-08-06T10:04:22.302Z,5.32
2022-08-06T10:09:44.315Z,5.18
2022-08-06T10:14:38.811Z,5.13
2022-08-06T10:19:36.030Z,5.80
2022-08-06T10:24:42.262Z,5.07
2022-08-06T10:29:45.641Z,4.90
2022-08-06T10:34:43.638Z,5.13
2022-08-06T10:40:08.544Z,5.38
2022-08-06T10:45:12.749Z,5.28
2022-08-06T10:50:30.149Z,4.97
2022-08-06T10:55:23.663Z,5.22
2022-08-06T11:00:21.272Z,4.93
2022-08-06T11:05:25.645Z,5.45
2022-08-06T11:10:43.116Z,5.00
2022-08-06T11:15:37.960Z,4.67
2022-08-06T11:20:43.191Z,4.53
2022-08-06T11:25:44.690Z,5.17
2022-08-06T11:30:46.306Z,4.78
2022-08-06T11:35:52.827Z,5.00
2022-08-06T11:41:02.642Z,4.70
2022-08-06T11:46:32.009Z,4.80
2022-08-06T11:51:42.516Z,4.97
2022-08-06T11:57:33.741Z,4.55
2022-08-06T12:03:02.799Z,4.88
2022-08-06T12:08:38.971Z,4.82
2022-08-06T12:13:57.840Z,4.97
2022-08-06T12:18:57.251Z,5.10
2022-08-06T12:23:55.926Z,5.10
2022-08-06T12:28:53.019Z,5.35
2022-08-06T12:33:46.843Z,5.20
2022-08-06T12:38:42.208Z,4.60
2022-08-06T12:43:57.100Z,5.25
2022-08-06T12:48:55.105Z,4.85
2022-08-06T12:53:52.561Z,4.75
2022-08-06T13:03:49.315Z,4.80
2022-08-06T13:08:54.635Z,5.03
2022-08-06T13:14:12.509Z,4.78
2022-08-06T13:19:15.956Z,4.57
2022-08-06T13:24:31.059Z,4.35
2022-08-06T13:30:33.226Z,4.30
2022-08-06T13:34:50.919Z,4.43
2022-08-06T13:39:57.295Z,4.20
2022-08-06T13:44:50.682Z,4.20
2022-08-06T13:50:02.787Z,4.40
2022-08-06T13:55:01.647Z,4.55
2022-08-06T13:59:55.406Z,5.00
2022-08-06T14:10:08.888Z,5.03
2022-08-06T14:15:03.287Z,4.95
2022-08-06T14:25:14.187Z,4.40
2022-08-06T14:30:29.526Z,4.45
2022-08-06T14:35:26.621Z,4.50
2022-08-06T14:41:00.882Z,4.53
2022-08-06T14:45:55.320Z,4.90
2022-08-06T14:50:48.694Z,4.45
2022-08-06T14:55:42.035Z,5.22
2022-08-06T15:00:57.073Z,5.45
2022-08-06T15:06:04.829Z,5.10
2022-08-06T15:11:00.115Z,4.95
2022-08-06T15:15:57.248Z,5.10
2022-08-06T15:20:50.576Z,5.60
2022-08-06T15:25:59.912Z,5.60
2022-08-06T15:30:54.083Z,5.28
2022-08-06T15:35:58.374Z,5.88
2022-08-06T15:40:54.464Z,5.97
2022-08-06T15:45:51.545Z,5.40
2022-08-06T15:50:59.635Z,5.55
2022-08-06T15:56:02.122Z,5.30
2022-08-06T16:01:03.823Z,5.20
2022-08-06T16:06:09.525Z,5.22
2022-08-06T16:11:08.557Z,5.40
2022-08-06T16:16:02.099Z,5.03
2022-08-06T16:20:55.289Z,5.07
2022-08-06T16:26:15.012Z,5.43
2022-08-06T16:31:14.460Z,4.78
2022-08-06T16:36:09.373Z,4.70
2022-08-06T16:41:06.823Z,5.00
2022-08-06T16:46:03.497Z,5.05
2022-08-06T16:51:02.554Z,5.22
2022-08-06T16:55:56.842Z,5.78
2022-08-06T17:36:29.310Z,6.85
2022-08-06T17:49:06.516Z,7.70
2022-08-06T17:55:37.502Z,7.75
2022-08-06T18:20:45.321Z,7.13
2022-08-06T18:26:07.267Z,7.32
2022-08-06T18:38:51.248Z,7.45
2022-08-06T18:51:03.699Z,6.90
2022-08-06T18:56:05.076Z,7.65
2022-08-06T19:00:59.343Z,7.13
2022-08-06T19:05:56.563Z,6.90
2022-08-06T19:10:55.805Z,7.28
2022-08-06T19:16:21.759Z,7.28
2022-08-06T19:22:05.377Z,7.57
2022-08-06T19:27:19.314Z,7.93
2022-08-06T19:32:48.651Z,7.57
2022-08-06T19:45:17.058Z,8.10
2022-08-06T19:57:35.868Z,7.97
2022-08-06T20:08:33.241Z,7.38
2022-08-06T20:13:53.364Z,6.80
2022-08-06T20:18:51.746Z,7.75
2022-08-06T20:23:45.649Z,7.57
2022-08-06T20:29:08.728Z,7.80
2022-08-06T20:34:04.491Z,7.32
2022-08-06T20:38:58.641Z,7.90
2022-08-06T20:44:04.731Z,7.90
2022-08-06T20:49:03.190Z,7.30
2022-08-06T20:54:17.210Z,7.65
2022-08-06T20:59:19.541Z,7.53
2022-08-06T21:05:16.643Z,7.13
2022-08-06T21:09:34.250Z,7.40
2022-08-06T21:14:30.385Z,7.30
2022-08-06T21:19:41.148Z,8.00
2022-08-06T21:24:42.408Z,7.60
2022-08-06T21:30:10.026Z,7.55
2022-08-06T21:34:50.343Z,8.10
2022-08-06T21:39:58.207Z,7.85
2022-08-06T21:44:59.317Z,7.38
2022-08-06T21:50:00.733Z,8.10
2022-08-06T21:56:38.260Z,8.05
2022-08-06T22:00:44.623Z,7.63
2022-08-06T22:06:20.619Z,7.78
2022-08-06T22:12:40.935Z,8.02
2022-08-06T22:16:13.815Z,8.30
2022-08-06T22:21:07.792Z,8.40
2022-08-06T22:26:09.761Z,8.35
2022-08-06T22:31:12.130Z,8.95
2022-08-06T22:36:11.591Z,8.25
2022-08-06T22:41:11.031Z,8.85
2022-08-06T22:46:08.578Z,8.38
2022-08-06T22:51:03.744Z,8.68
2022-08-06T22:56:08.307Z,9.13
2022-08-06T23:01:08.664Z,8.85
2022-08-06T23:06:19.054Z,9.02
2022-08-06T23:11:22.756Z,9.10
2022-08-06T23:16:20.816Z,9.55
2022-08-06T23:21:56.559Z,9.10
2022-08-06T23:27:00.214Z,9.18
2022-08-06T23:31:57.518Z,9.00
2022-08-06T23:37:07.789Z,9.07
2022-08-06T23:42:14.498Z,9.90
2022-08-06T23:47:54.416Z,9.55
2022-08-06T23:52:34.022Z,9.13
2022-08-06T23:57:56.579Z,9.30
